29. September 2022

Uhrzeit Code Wetter Temp. Sichtweite Wolkendecke Wind METAR/SPECI
10:00
I
24 °C 5 km 800 ft 210° 210° 8 kt METAR DGAA 291000Z 21008KT 5000 RA BKN008 24/24 Q1014 TEMPO 5000 -RA
09:00
I
24 °C 4 km 800 ft 200° 200° 8 kt METAR DGAA 290900Z 20008KT 4000 RA BKN008 24/23 Q1014 TEMPO 5000 -RA
08:00
V
24 °C 8 km - 270° 270° 4 kt METAR DGAA 290800Z 27004KT 8000 SCT010 24/24 Q1013 NOSIG
07:00
V
24 °C 10 km+ - 260° 260° 4 kt METAR DGAA 290700Z 26004KT 230V300 9999 FEW010 24/23 Q1013 NOSIG
06:00
V
24 °C 10 km+ - 280° 280° 4 kt METAR DGAA 290600Z 28004KT 9999 FEW010 24/23 Q1012 NOSIG
04:00
I
24 °C 6 km 900 ft 250° 250° 6 kt METAR DGAA 290400Z 25006KT 6000 -RA BKN009 24/23 Q1011 NOSIG
03:00
I
24 °C 10 km+ 900 ft 260° 260° 4 kt METAR DGAA 290300Z 26004KT 9999 BKN009 24/23 Q1011 NOSIG
02:00
I
24 °C 10 km+ 900 ft 240° 240° 5 kt METAR DGAA 290200Z 24005KT 9999 BKN009 24/24 Q1012 NOSIG
01:00
I
24 °C 10 km+ 900 ft 210° 210° 8 kt METAR DGAA 290100Z 21008KT 9999 BKN009 24/24 Q1012 NOSIG
00:00
M
25 °C 10 km+ 1.000 ft 230° 230° 7 kt METAR DGAA 290000Z 23007KT 9999 BKN010 25/24 Q1013 NOSIG

28. September 2022

Uhrzeit Code Wetter Temp. Sichtweite Wolkendecke Wind METAR/SPECI
23:00
V
25 °C 10 km+ - 210° 210° 9 kt METAR DGAA 282300Z 21009KT 9999 SCT010 25/24 Q1013 NOSIG
22:00
V
25 °C 10 km+ - 220° 220° 9 kt METAR DGAA 282200Z 22009KT 9999 FEW010 25/24 Q1013 NOSIG
21:00
M
24 °C 8 km 1.000 ft 210° 210° 7 kt METAR DGAA 282100Z 21007KT 8000 -RA BKN010 24/24 Q1013 TEMPO 7000 -RA
20:00
M
24 °C 8 km 1.000 ft 190° 190° 5 kt METAR DGAA 282000Z 19005KT 8000 -RA BKN010 24/23 Q1013 TEMPO 7000 -RA
19:00
M
24 °C 8 km 1.000 ft 180° 180° 5 kt METAR DGAA 281900Z 18005KT 8000 -RA BKN010 24/23 Q1013 TEMPO 7000 -RA
18:00
V
25 °C 8 km - 220° 220° 8 kt METAR DGAA 281800Z 22008KT 8000 -RA SCT010 FEW028CB 25/23 Q1013 TEMPO 7000 -TSRA
17:00
M
25 °C 10 km+ 1.000 ft 220° 220° 10 kt METAR DGAA 281700Z 22010KT 9999 BKN010 25/23 Q1012 NOSIG
16:00
M
25 °C 8 km 1.000 ft 220° 220° 13 kt METAR DGAA 281600Z 22013KT 8000 -RA BKN010 FEW028CB 25/23 Q1012 TEMPO 7000 -TSRA
15:00
M
25 °C 10 km+ 1.200 ft 190° 190° 16 kt METAR DGAA 281500Z 19016KT 9999 BKN012 FEW028CB 25/23 Q1011 NOSIG
14:00
M
26 °C 10 km+ 1.400 ft 190° 190° 12 kt METAR DGAA 281400Z 19012KT 9999 BKN014 FEW028CB 26/24 Q1012 NOSIG
13:00
V
26 °C 10 km+ - 200° 200° 11 kt METAR DGAA 281300Z 20011KT 9999 SCT012 FEW028CB 26/23 Q1012 NOSIG
12:00
M
26 °C 10 km+ 1.000 ft 190° 190° 11 kt METAR DGAA 281200Z 19011KT 9999 BKN010 FEW025CB 26/24 Q1013 NOSIG
11:00
M
25 °C 10 km+ 1.000 ft 190° 190° 11 kt METAR DGAA 281100Z 19011KT 9999 BKN010 FEW025CB 25/24 Q1014 TEMPO 5000 TSRA
10:00
M
25 °C 10 km+ 1.000 ft 210° 210° 12 kt METAR DGAA 281000Z 21012KT 9999 BKN010 25/24 Q1014 NOSIG
09:00
I
24 °C 8 km 800 ft 240° 240° 8 kt METAR DGAA 280900Z 24008KT 8000 BKN008 24/24 Q1014 NOSIG
08:00
I
25 °C 9 km 900 ft 200° 200° 8 kt METAR DGAA 280800Z 20008KT 9000 BKN009 25/24 Q1014 NOSIG
07:00
I
24 °C 8 km 900 ft 200° 200° 8 kt METAR DGAA 280700Z 20008KT 8000 -RA BKN009 24/24 Q1013 NOSIG
06:00
I
24 °C 3 km 900 ft 240° 240° 10 kt METAR DGAA 280600Z 24010KT 3000 RA BKN009 24/24 Q1012 NOSIG
05:00
I
24 °C 10 km+ 900 ft 210° 210° 9 kt METAR DGAA 280500Z 21009KT 9999 BKN009 24/24 Q1012 NOSIG
04:00
I
25 °C 8 km 900 ft 200° 200° 9 kt METAR DGAA 280400Z 20009KT 8000 -RA BKN009 25/24 Q1012 NOSIG
00:00
I
25 °C 10 km+ 900 ft 200° 200° 10 kt METAR DGAA 280000Z 20010KT 9999 BKN009 25/24 Q1013 NOSIG

27. September 2022

Uhrzeit Code Wetter Temp. Sichtweite Wolkendecke Wind METAR/SPECI
23:00
M
25 °C 10 km+ 1.000 ft 190° 190° 11 kt METAR DGAA 272300Z 19011KT 9999 BKN010 25/24 Q1013 NOSIG
22:00
M
25 °C 10 km+ 1.000 ft 210° 210° 11 kt METAR DGAA 272200Z 21011KT 9999 BKN010 25/24 Q1013 NOSIG
21:00
M
25 °C 10 km+ 1.000 ft 190° 190° 13 kt METAR DGAA 272100Z 19013KT 9999 BKN010 25/24 Q1013 NOSIG
20:00
M
25 °C 10 km+ 1.000 ft 200° 200° 12 kt METAR DGAA 272000Z 20012KT 9999 BKN010 25/23 Q1012 NOSIG
15:00
V
27 °C 10 km+ - 190° 190° 14 kt METAR DGAA 271500Z 19014KT 9999 FEW012 SCT017 27/24 Q1011 NOSIG
14:00
V
26 °C 10 km+ - 190° 190° 14 kt METAR DGAA 271400Z 19014KT 9999 FEW012 SCT017 26/24 Q1011 NOSIG
11:00
M
29 °C 10 km+ 1.500 ft 260° 260° 12 kt METAR DGAA 271100Z 26012KT 9999 BKN015 29/23 Q1013 NOSIG
Ältere Daten

Wir und Dritte verfolgen dein Internetverhalten auf unserer Website mit Cookies. Wenn du fortfährst, gehen wir davon aus, dass du mit unserer Cookie-Richtlinie einverstanden bist. Mehr erfahren